createdAt,value
2022-11-25T00:06:23.253Z,98981.61
2022-11-25T00:11:54.774Z,98990.38
2022-11-25T01:10:00.379Z,99007.64
2022-11-25T01:15:29.572Z,99013.20
2022-11-25T01:34:36.870Z,99019.67
2022-11-25T01:45:28.975Z,99017.07
2022-11-25T01:52:31.179Z,99011.27
2022-11-25T01:58:16.426Z,99014.41
2022-11-25T02:03:35.297Z,99006.49
2022-11-25T02:23:25.770Z,99003.80
2022-11-25T02:28:59.955Z,99005.77
2022-11-25T02:34:10.673Z,99005.75
2022-11-25T02:39:24.533Z,99002.11
2022-11-25T02:44:40.359Z,98999.90
2022-11-25T02:50:04.950Z,98992.77
2022-11-25T02:55:24.104Z,98987.74
2022-11-25T03:00:43.450Z,98990.90
2022-11-25T03:06:03.507Z,98995.36
2022-11-25T03:11:10.986Z,99003.14
2022-11-25T03:16:30.406Z,99004.31
2022-11-25T03:33:17.416Z,99008.81
2022-11-25T03:38:28.245Z,99014.67
2022-11-25T03:43:56.658Z,99021.83
2022-11-25T04:00:16.078Z,99020.91
2022-11-25T04:05:28.507Z,99023.96
2022-11-25T04:11:16.928Z,99022.95
2022-11-25T04:16:27.483Z,99020.73
2022-11-25T04:22:02.207Z,99025.88
2022-11-25T04:27:13.025Z,99031.67
2022-11-25T04:38:14.158Z,99038.86
2022-11-25T04:43:31.192Z,99042.45
2022-11-25T04:48:57.201Z,99048.30
2022-11-25T04:55:28.873Z,99047.25
2022-11-25T05:00:47.821Z,99054.50
2022-11-25T05:06:09.386Z,99059.33
2022-11-25T05:11:15.215Z,99065.96
2022-11-25T05:21:59.562Z,99078.02
2022-11-25T05:27:11.636Z,99084.02
2022-11-25T05:32:30.565Z,99088.94
2022-11-25T05:37:45.444Z,99087.91
2022-11-25T05:42:51.322Z,99088.06
2022-11-25T05:48:04.672Z,99097.24
2022-11-25T05:53:11.875Z,99098.96
2022-11-25T05:58:15.975Z,99107.56
2022-11-25T06:03:24.299Z,99112.46
2022-11-25T06:08:28.768Z,99116.34
2022-11-25T06:13:34.743Z,99124.02
2022-11-25T06:18:40.771Z,99126.59
2022-11-25T06:24:10.986Z,99130.43
2022-11-25T06:29:21.463Z,99135.86
2022-11-25T06:39:58.828Z,99137.26
2022-11-25T06:45:22.053Z,99142.30
2022-11-25T06:50:27.115Z,99146.53
2022-11-25T07:01:26.350Z,99147.63
2022-11-25T07:17:25.327Z,99150.25
2022-11-25T07:22:30.562Z,99153.42
2022-11-25T07:27:37.739Z,99153.73
2022-11-25T07:32:42.010Z,99159.55
2022-11-25T07:37:49.682Z,99162.17
2022-11-25T07:42:56.961Z,99164.30
2022-11-25T07:48:07.274Z,99176.27
2022-11-25T07:53:13.545Z,99178.90
2022-11-25T07:58:17.047Z,99184.31
2022-11-25T08:03:21.597Z,99186.34
2022-11-25T08:08:26.528Z,99194.18
2022-11-25T08:13:29.515Z,99201.02
2022-11-25T08:18:33.180Z,99204.61
2022-11-25T08:23:37.800Z,99203.69
2022-11-25T08:28:41.960Z,99204.55
2022-11-25T08:33:45.270Z,99209.89
2022-11-25T08:38:51.507Z,99214.76
2022-11-25T08:43:55.290Z,99220.98
2022-11-25T08:48:58.358Z,99220.29
2022-11-25T08:54:02.160Z,99222.98
2022-11-25T08:59:05.264Z,99222.64
2022-11-25T09:04:08.332Z,99227.08
2022-11-25T09:09:11.377Z,99226.48
2022-11-25T09:14:15.020Z,99229.08
2022-11-25T09:19:22.163Z,99232.27
2022-11-25T09:24:28.996Z,99229.56
2022-11-25T09:29:34.881Z,99232.75
2022-11-25T09:34:57.216Z,99227.94
2022-11-25T09:40:48.187Z,99238.85
2022-11-25T09:51:37.988Z,99233.91
2022-11-25T09:57:11.479Z,99231.61
2022-11-25T10:02:24.139Z,99228.58
2022-11-25T10:07:39.029Z,99230.25
2022-11-25T10:12:47.225Z,99229.48
2022-11-25T10:17:54.389Z,99232.79
2022-11-25T10:23:14.113Z,99231.45
2022-11-25T10:28:23.507Z,99234.17
2022-11-25T10:33:33.724Z,99235.48
2022-11-25T10:38:49.780Z,99238.54
2022-11-25T10:44:04.345Z,99236.88
2022-11-25T10:49:27.914Z,99238.62
2022-11-25T10:54:34.545Z,99242.05
2022-11-25T10:59:39.779Z,99242.69
2022-11-25T11:05:02.048Z,99236.84
2022-11-25T11:10:26.017Z,99239.31
2022-11-25T11:15:32.018Z,99239.95
2022-11-25T11:20:35.179Z,99236.60
2022-11-25T11:25:46.579Z,99239.11
2022-11-25T11:31:41.968Z,99236.31
2022-11-25T11:37:08.592Z,99239.77
2022-11-25T11:42:35.068Z,99236.31
2022-11-25T11:48:13.911Z,99236.48
2022-11-25T11:54:00.951Z,99241.64
2022-11-25T11:59:23.012Z,99240.59
2022-11-25T12:04:36.803Z,99244.64
2022-11-25T12:09:55.422Z,99242.34
2022-11-25T12:15:06.486Z,99240.64
2022-11-25T12:20:36.833Z,99239.29
2022-11-25T12:25:47.554Z,99249.67
2022-11-25T12:31:21.503Z,99251.86
2022-11-25T12:36:38.086Z,99257.61
2022-11-25T12:41:45.069Z,99257.43
2022-11-25T12:46:50.859Z,99259.14
2022-11-25T12:52:13.723Z,99258.78
2022-11-25T12:57:49.451Z,99257.72
2022-11-25T13:03:14.264Z,99258.40
2022-11-25T13:08:55.503Z,99260.35
2022-11-25T13:14:47.996Z,99262.46
2022-11-25T13:20:24.354Z,99260.50
2022-11-25T13:25:30.084Z,99260.88
2022-11-25T13:30:33.638Z,99269.56
2022-11-25T13:35:49.159Z,99269.62
2022-11-25T13:41:01.201Z,99267.51
2022-11-25T13:46:06.141Z,99268.21
2022-11-25T13:51:22.708Z,99274.86
2022-11-25T13:56:32.316Z,99279.20
2022-11-25T14:01:37.485Z,99279.61
2022-11-25T14:07:04.098Z,99284.80
2022-11-25T14:12:42.774Z,99285.73
2022-11-25T14:18:04.630Z,99283.52
2022-11-25T14:23:22.090Z,99288.46
2022-11-25T14:28:44.046Z,99290.60
2022-11-25T14:34:27.885Z,99294.50
2022-11-25T14:39:40.017Z,99298.11
2022-11-25T14:44:49.459Z,99301.69
2022-11-25T14:50:18.872Z,99305.07
2022-11-25T14:55:31.021Z,99305.37
2022-11-25T15:00:34.466Z,99311.73
2022-11-25T15:05:41.041Z,99312.63
2022-11-25T15:10:56.282Z,99320.45
2022-11-25T15:16:05.954Z,99322.61
2022-11-25T15:21:14.237Z,99325.70
2022-11-25T15:26:34.384Z,99333.01
2022-11-25T15:31:40.195Z,99334.18
2022-11-25T15:36:44.596Z,99335.98
2022-11-25T15:41:55.968Z,99338.87
2022-11-25T15:47:24.811Z,99335.67
2022-11-25T15:52:35.482Z,99335.53
2022-11-25T15:57:39.182Z,99330.72
2022-11-25T16:02:42.834Z,99332.34
2022-11-25T16:07:52.438Z,99334.82
2022-11-25T16:13:23.561Z,99331.59
2022-11-25T16:18:40.985Z,99336.73
2022-11-25T16:23:51.512Z,99332.33
2022-11-25T16:28:57.876Z,99342.79
2022-11-25T16:34:16.612Z,99342.51
2022-11-25T16:39:23.355Z,99347.90
2022-11-25T16:44:28.496Z,99348.25
2022-11-25T16:49:32.189Z,99355.48
2022-11-25T16:54:37.899Z,99352.07
2022-11-25T16:59:44.598Z,99350.68
2022-11-25T17:04:49.444Z,99345.83
2022-11-25T17:09:57.211Z,99349.98
2022-11-25T17:15:05.451Z,99351.76
2022-11-25T17:20:21.916Z,99359.58
2022-11-25T17:25:32.259Z,99358.18
2022-11-25T17:30:39.632Z,99362.96
2022-11-25T17:35:44.151Z,99367.60
2022-11-25T17:40:48.209Z,99376.29
2022-11-25T17:45:52.061Z,99378.84
2022-11-25T17:51:00.261Z,99380.95
2022-11-25T17:56:30.160Z,99384.64
2022-11-25T18:01:33.821Z,99387.70
2022-11-25T18:06:37.472Z,99390.64
2022-11-25T18:11:46.711Z,99388.21
2022-11-25T18:16:50.612Z,99390.02
2022-11-25T18:22:00.369Z,99394.70
2022-11-25T18:27:07.435Z,99394.64
2022-11-25T18:32:14.496Z,99398.15
2022-11-25T18:37:18.365Z,99406.75
2022-11-25T18:42:29.714Z,99412.35
2022-11-25T18:47:33.335Z,99418.14
2022-11-25T18:52:37.055Z,99420.61
2022-11-25T18:57:42.849Z,99419.15
2022-11-25T19:02:47.057Z,99417.75
2022-11-25T19:07:56.302Z,99418.70
2022-11-25T19:13:04.107Z,99412.67
2022-11-25T19:18:07.644Z,99415.33
2022-11-25T19:23:22.875Z,99424.98
2022-11-25T19:28:26.557Z,99434.19
2022-11-25T19:33:34.328Z,99432.87
2022-11-25T19:38:37.316Z,99439.34
2022-11-25T19:44:05.677Z,99448.98
2022-11-25T19:49:15.150Z,99453.61
2022-11-25T19:54:20.104Z,99455.71
2022-11-25T19:59:23.318Z,99455.67
2022-11-25T20:04:27.343Z,99459.13
2022-11-25T20:09:31.107Z,99466.30
2022-11-25T20:14:41.233Z,99469.23
2022-11-25T20:19:44.955Z,99474.08
2022-11-25T20:24:48.648Z,99473.17
2022-11-25T20:29:52.112Z,99473.90
2022-11-25T20:34:57.249Z,99474.27
2022-11-25T20:40:13.674Z,99481.25
2022-11-25T20:45:20.849Z,99487.04
2022-11-25T20:50:24.096Z,99490.02
2022-11-25T20:55:27.472Z,99488.98
2022-11-25T21:00:31.069Z,99488.86
2022-11-25T21:05:34.769Z,99493.84
2022-11-25T21:10:38.077Z,99498.40
2022-11-25T21:15:41.492Z,99502.11
2022-11-25T21:20:45.434Z,99506.96
2022-11-25T21:25:50.147Z,99514.73
2022-11-25T21:30:53.444Z,99511.80
2022-11-25T21:35:57.123Z,99509.77
2022-11-25T21:41:00.630Z,99517.46
2022-11-25T21:46:07.787Z,99517.35
2022-11-25T21:51:13.136Z,99519.81
2022-11-25T21:56:20.277Z,99521.74
2022-11-25T22:01:27.164Z,99526.70
2022-11-25T22:06:32.259Z,99525.91
2022-11-25T22:11:45.662Z,99527.48
2022-11-25T22:16:49.309Z,99533.44
2022-11-25T22:21:53.195Z,99540.48
2022-11-25T22:26:58.236Z,99541.10
2022-11-25T22:32:09.626Z,99540.33
2022-11-25T22:37:26.131Z,99545.60
2022-11-25T22:42:31.897Z,99548.57
2022-11-25T22:47:37.510Z,99552.23
2022-11-25T22:52:40.749Z,99549.41
2022-11-25T22:57:44.322Z,99547.91
2022-11-25T23:02:49.366Z,99554.48
2022-11-25T23:07:52.980Z,99559.94
2022-11-25T23:12:56.695Z,99560.10
2022-11-25T23:18:03.081Z,99564.80
2022-11-25T23:23:18.623Z,99566.84
2022-11-25T23:28:22.839Z,99567.23
2022-11-25T23:33:34.703Z,99570.35
2022-11-25T23:38:51.078Z,99570.30
2022-11-25T23:43:55.482Z,99568.32
2022-11-25T23:49:06.098Z,99566.45
2022-11-25T23:54:13.898Z,99564.69
2022-11-25T23:59:17.787Z,99569.96
